createdAt,value
2023-04-17T00:00:02.853Z,7.9
2023-04-17T00:20:02.438Z,7.8
2023-04-17T00:40:02.844Z,7.6
2023-04-17T01:00:02.288Z,7.5
2023-04-17T01:20:02.115Z,7.5
2023-04-17T01:40:02.508Z,7.4
2023-04-17T02:00:02.233Z,7.2
2023-04-17T02:20:02.956Z,7.2
2023-04-17T02:40:02.294Z,7
2023-04-17T03:00:02.802Z,6.8
2023-04-17T03:20:02.381Z,6.6
2023-04-17T03:40:02.767Z,6.4
2023-04-17T04:00:03.132Z,6.3
2023-04-17T04:20:02.394Z,6.3
2023-04-17T04:40:02.853Z,6.2
2023-04-17T05:00:02.255Z,6.2
2023-04-17T05:20:02.612Z,6.4
2023-04-17T05:40:02.997Z,6.5
2023-04-17T06:00:03.945Z,6.8
2023-04-17T06:20:02.651Z,7.1
2023-04-17T06:40:02.915Z,7.3
2023-04-17T07:00:02.448Z,7.4
2023-04-17T07:20:02.909Z,7.5
2023-04-17T07:40:02.394Z,7.6
2023-04-17T08:00:05.789Z,7.9
2023-04-17T08:20:02.561Z,7.7
2023-04-17T08:40:03.077Z,7.8
2023-04-17T09:00:03.045Z,8.2
2023-04-17T09:20:02.992Z,9
2023-04-17T09:40:02.467Z,9.5
2023-04-17T10:00:02.776Z,9.4
2023-04-17T10:20:02.668Z,9
2023-04-17T10:40:03.130Z,9.4
2023-04-17T11:00:02.631Z,9.3
2023-04-17T11:20:02.273Z,9.1
2023-04-17T11:40:02.885Z,8.9
2023-04-17T12:00:03.066Z,9
2023-04-17T12:20:02.593Z,8.9
2023-04-17T12:40:03.034Z,9
2023-04-17T13:00:02.440Z,9.1
2023-04-17T13:20:02.978Z,9.4
2023-04-17T13:40:02.514Z,9.2
2023-04-17T14:00:03.359Z,9.4
2023-04-17T14:20:02.296Z,9.2
2023-04-17T14:40:02.907Z,9.1
2023-04-17T15:00:02.453Z,8.9
2023-04-17T15:20:02.187Z,8.8
2023-04-17T15:40:02.558Z,8.6
2023-04-17T16:00:03.932Z,8.4
2023-04-17T16:20:03.635Z,8.2
2023-04-17T16:40:03.273Z,8.3
2023-04-17T17:00:02.773Z,8.2
2023-04-17T17:20:03.015Z,8.1
2023-04-17T17:40:02.605Z,7.9
2023-04-17T18:00:03.226Z,7.8
2023-04-17T18:20:03.031Z,7.8
2023-04-17T18:40:02.661Z,7.7
2023-04-17T19:00:04.251Z,7.8
2023-04-17T19:20:03.001Z,7.7
2023-04-17T19:40:04.219Z,7.7
2023-04-17T20:00:02.859Z,7.7
2023-04-17T20:20:02.568Z,7.6
2023-04-17T20:40:02.974Z,7.6
2023-04-17T21:00:02.376Z,7.5
2023-04-17T21:20:02.181Z,7.5
2023-04-17T21:40:02.730Z,7.4
2023-04-17T22:00:03.130Z,7.1
2023-04-17T22:20:02.652Z,6.9
2023-04-17T22:40:02.407Z,6.7
2023-04-17T23:00:02.854Z,6.6
2023-04-17T23:20:02.363Z,6.3
2023-04-17T23:40:02.617Z,6.2
